Time;durP1;ratioP1;P1;durP2;ratioP2;P2;SDS_P1;SDS_P2;PMS_P1;PMS_P2;Temp;Humidity;BMP_temperature;BMP_pressure;BME280_temperature;BME280_humidity;BME280_pressure;Samples;Min_cycle;Max_cycle;Signal;HPM_P1;HPM_P2
2021/07/03 00:02:33;;;;;;;12.13;6.22;;;;;;;15.55;51.76;101258.34;8005746;28;20029;-71
2021/07/03 00:06:24;;;;;;;7.45;4.78;;;;;;;15.52;51.66;101260.41;8005920;28;20070;-72
2021/07/03 00:10:15;;;;;;;9.15;5.03;;;;;;;15.47;51.87;101260.75;8006168;28;20032;-72
2021/07/03 00:14:06;;;;;;;8.80;5.20;;;;;;;15.40;51.88;101256.09;8005660;28;20389;-72
2021/07/03 00:18:00;;;;;;;9.77;5.15;;;;;;;15.37;51.93;101253.69;8005883;28;20059;-72
2021/07/03 00:21:50;;;;;;;10.18;5.45;;;;;;;15.34;51.81;101259.22;8005811;28;20397;-72
2021/07/03 00:25:41;;;;;;;10.23;6.00;;;;;;;15.25;52.07;101243.06;8005934;28;20591;-72
2021/07/03 00:29:32;;;;;;;9.23;5.07;;;;;;;15.24;51.86;101252.00;8005694;28;20037;-71
2021/07/03 00:33:26;;;;;;;7.45;5.10;;;;;;;15.25;52.28;101268.69;8004200;28;20033;-72
2021/07/03 00:37:17;;;;;;;9.55;4.97;;;;;;;15.21;52.24;101273.38;8005378;28;20044;-72
2021/07/03 00:41:08;;;;;;;7.80;5.97;;;;;;;15.15;52.28;101260.66;8005029;28;20032;-72
2021/07/03 00:44:59;;;;;;;8.85;5.85;;;;;;;15.12;52.26;101260.91;8003277;28;20078;-72
2021/07/03 00:48:50;;;;;;;13.07;7.05;;;;;;;15.12;52.26;101262.72;8004830;28;20068;-72
2021/07/03 00:52:44;;;;;;;8.70;5.90;;;;;;;15.08;52.37;101256.81;8003736;28;20037;-72
2021/07/03 00:56:40;;;;;;;11.07;5.63;;;;;;;15.01;52.34;101250.31;8003264;28;20120;-72
2021/07/03 01:00:31;;;;;;;10.35;6.00;;;;;;;15.00;52.21;101251.25;8003492;28;20523;-71
2021/07/03 01:04:25;;;;;;;8.27;5.60;;;;;;;14.97;52.34;101251.50;8003856;28;20060;-72
2021/07/03 01:08:18;;;;;;;7.15;5.32;;;;;;;14.87;52.44;101242.63;8004548;28;20569;-72
2021/07/03 01:12:09;;;;;;;12.00;6.03;;;;;;;14.91;52.32;101259.09;8004153;28;20040;-72
2021/07/03 01:16:01;;;;;;;8.30;5.85;;;;;;;14.83;52.50;101249.13;8003688;28;20100;-72
2021/07/03 01:19:54;;;;;;;8.07;5.70;;;;;;;14.80;52.41;101249.34;8002650;28;20110;-72
2021/07/03 01:23:47;;;;;;;11.38;5.97;;;;;;;14.79;52.60;101258.25;8003580;28;20505;-72
2021/07/03 01:27:38;;;;;;;10.23;6.25;;;;;;;14.73;52.36;101253.44;8002501;28;20719;-72
2021/07/03 01:31:29;;;;;;;11.80;6.43;;;;;;;14.74;52.71;101253.31;8002438;28;20033;-72
2021/07/03 01:35:26;;;;;;;11.23;7.03;;;;;;;14.72;52.71;101259.69;8003520;28;20409;-72
2021/07/03 01:39:17;;;;;;;10.48;7.18;;;;;;;14.68;52.82;101256.44;8002526;28;20485;-72
2021/07/03 01:43:08;;;;;;;10.80;6.97;;;;;;;14.66;52.85;101258.38;8002439;28;20035;-72
2021/07/03 01:47:02;;;;;;;10.55;7.45;;;;;;;14.65;52.81;101254.03;7999714;28;20029;-72
2021/07/03 01:50:54;;;;;;;12.02;7.40;;;;;;;14.62;52.87;101254.28;8002185;28;20060;-72
2021/07/03 01:54:45;;;;;;;12.68;7.57;;;;;;;14.60;52.78;101253.53;8002379;28;20033;-72
2021/07/03 01:58:37;;;;;;;14.90;7.47;;;;;;;14.57;53.13;101256.41;7986041;28;20062;-72
2021/07/03 02:02:38;;;;;;;9.48;6.53;;;;;;;14.54;53.04;101253.19;7995313;28;20052;-72
2021/07/03 02:06:29;;;;;;;9.05;6.30;;;;;;;14.52;53.20;101253.28;8002091;28;20048;-72
2021/07/03 02:10:22;;;;;;;10.25;7.05;;;;;;;14.50;53.27;101254.38;8003227;28;20397;-71
2021/07/03 02:14:15;;;;;;;10.02;6.40;;;;;;;14.44;53.18;101249.53;8001485;28;20033;-72
2021/07/03 02:18:19;;;;;;;10.32;6.47;;;;;;;14.42;53.05;101257.56;8001901;28;20041;-72
2021/07/03 02:22:10;;;;;;;9.57;6.18;;;;;;;14.39;53.28;101257.78;8002430;28;20108;-72
2021/07/03 02:26:08;;;;;;;12.85;6.47;;;;;;;14.34;53.13;101252.00;8005251;28;20041;-72
2021/07/03 02:30:06;;;;;;;11.27;6.70;;;;;;;14.32;53.22;101253.94;8008119;28;20388;-72
2021/07/03 02:33:57;;;;;;;11.73;6.18;;;;;;;14.29;53.31;101256.81;8008704;28;20028;-71
2021/07/03 02:37:48;;;;;;;9.43;5.88;;;;;;;14.26;53.09;101255.22;8009264;28;20093;-72
2021/07/03 02:41:39;;;;;;;8.75;6.20;;;;;;;14.22;53.02;101243.19;8007498;28;20039;-72
2021/07/03 02:45:32;;;;;;;7.90;5.68;;;;;;;14.14;53.16;101228.88;8007195;28;20128;-72
2021/07/03 02:49:23;;;;;;;8.30;5.80;;;;;;;14.11;53.36;101235.25;8007477;28;20037;-71
2021/07/03 02:53:16;;;;;;;8.02;5.65;;;;;;;14.14;53.27;101244.72;8007224;28;20040;-72
2021/07/03 02:57:06;;;;;;;8.93;6.40;;;;;;;14.07;53.28;101227.66;8006444;28;20032;-72
2021/07/03 03:00:58;;;;;;;9.20;6.15;;;;;;;14.06;53.41;101240.03;8006885;28;20410;-72
2021/07/03 03:04:52;;;;;;;11.40;6.68;;;;;;;14.03;53.70;101237.63;8006390;28;20033;-72
2021/07/03 03:08:44;;;;;;;11.27;6.00;;;;;;;13.96;53.58;101225.00;8007864;28;20037;-72
2021/07/03 03:12:37;;;;;;;9.23;6.25;;;;;;;13.95;53.64;101228.59;8006745;28;20037;-72
2021/07/03 03:16:29;;;;;;;8.55;5.97;;;;;;;13.93;53.60;101218.13;8001199;28;20041;-72
2021/07/03 03:20:25;;;;;;;9.57;5.85;;;;;;;13.92;53.59;101224.38;7989448;28;20040;-71
2021/07/03 03:24:17;;;;;;;9.85;6.68;;;;;;;13.90;53.68;101219.22;8005431;28;20545;-72
2021/07/03 03:28:09;;;;;;;11.20;6.82;;;;;;;13.89;53.66;101214.03;8006827;28;20037;-72
2021/07/03 03:32:02;;;;;;;11.45;6.93;;;;;;;13.86;53.97;101201.06;8007019;28;20409;-72
2021/07/03 03:35:56;;;;;;;10.40;6.90;;;;;;;13.88;53.91;101207.09;8006343;28;20512;-72
2021/07/03 03:39:46;;;;;;;9.68;5.97;;;;;;;13.87;54.10;101200.97;8006054;28;20037;-71
2021/07/03 03:43:38;;;;;;;12.07;7.00;;;;;;;13.85;53.85;101192.28;8003181;28;20075;-72
2021/07/03 03:47:31;;;;;;;11.15;6.78;;;;;;;13.84;53.96;101197.72;8003964;28;20041;-72
2021/07/03 03:51:23;;;;;;;9.38;6.78;;;;;;;13.82;54.22;101189.03;8005812;28;20460;-71
2021/07/03 03:55:14;;;;;;;12.65;7.65;;;;;;;13.85;54.26;101196.72;8004812;28;20044;-72
2021/07/03 03:59:05;;;;;;;10.95;6.75;;;;;;;13.87;54.41;101205.41;8005106;28;20033;-71
2021/07/03 04:02:56;;;;;;;12.02;6.88;;;;;;;13.88;54.76;101202.63;8004700;28;20075;-72
2021/07/03 04:06:52;;;;;;;10.45;6.57;;;;;;;13.91;54.95;101206.84;8005796;28;20048;-72
2021/07/03 04:10:44;;;;;;;8.15;5.88;;;;;;;13.96;55.30;101195.94;8005403;28;20032;-72
2021/07/03 04:14:35;;;;;;;10.57;6.50;;;;;;;14.01;55.39;101205.19;8004631;28;20047;-71
2021/07/03 04:18:26;;;;;;;13.93;6.25;;;;;;;14.09;55.32;101196.72;8004998;28;20028;-71
2021/07/03 04:22:17;;;;;;;9.88;6.32;;;;;;;14.12;55.63;101188.53;8006191;28;20692;-71
2021/07/03 04:26:07;;;;;;;9.48;6.30;;;;;;;14.23;55.72;101196.47;8007104;28;20593;-72
2021/07/03 04:29:58;;;;;;;9.98;6.47;;;;;;;14.28;56.05;101195.19;8005520;28;20733;-72
2021/07/03 04:33:49;;;;;;;10.27;6.18;;;;;;;14.40;55.67;101198.69;8005164;28;20533;-70
2021/07/03 04:37:40;;;;;;;8.20;5.78;;;;;;;14.42;55.61;101183.56;8004125;28;20063;-72
2021/07/03 04:41:32;;;;;;;8.68;6.18;;;;;;;14.51;55.85;101185.50;7997230;28;20033;-71
2021/07/03 04:45:22;;;;;;;9.68;6.70;;;;;;;14.59;55.90;101195.47;8005043;28;20051;-72
2021/07/03 04:49:15;;;;;;;10.63;6.40;;;;;;;14.67;56.16;101193.09;8004468;28;20037;-71
2021/07/03 04:53:05;;;;;;;10.52;5.90;;;;;;;14.83;55.88;101190.09;8003550;28;20033;-72
2021/07/03 04:57:08;;;;;;;6.10;5.13;;;;;;;15.07;56.10;101204.00;8004244;28;20040;-72
2021/07/03 05:00:58;;;;;;;8.82;5.28;;;;;;;15.45;56.36;101207.09;8003168;28;20036;-71
2021/07/03 05:04:49;;;;;;;7.90;5.05;;;;;;;15.83;56.41;101201.28;8004151;28;20041;-72
2021/07/03 05:08:40;;;;;;;9.90;5.22;;;;;;;16.10;56.29;101199.00;8004331;28;20119;-71
2021/07/03 05:12:30;;;;;;;8.82;5.03;;;;;;;16.45;56.11;101200.50;7999753;28;20036;-72
2021/07/03 05:16:21;;;;;;;6.82;4.60;;;;;;;16.83;55.94;101198.03;8003668;28;20044;-72
2021/07/03 05:20:12;;;;;;;7.47;5.55;;;;;;;17.26;55.89;101191.63;8004197;28;20036;-72
2021/07/03 05:24:03;;;;;;;10.18;4.72;;;;;;;17.76;55.77;101198.56;8003552;28;20076;-72
2021/07/03 05:27:53;;;;;;;7.10;5.32;;;;;;;18.20;55.49;101202.41;8003987;28;20157;-71
2021/07/03 05:31:44;;;;;;;9.55;6.35;;;;;;;18.66;54.85;101201.63;8004052;28;20059;-72
2021/07/03 05:35:35;;;;;;;6.55;5.22;;;;;;;19.20;54.88;101202.66;8003496;28;20041;-72
2021/07/03 05:39:26;;;;;;;9.25;6.10;;;;;;;19.75;54.49;101198.06;8004376;28;20375;-72
2021/07/03 05:43:16;;;;;;;9.27;5.97;;;;;;;20.31;53.88;101192.34;8003635;28;20029;-72
2021/07/03 05:47:07;;;;;;;6.68;5.47;;;;;;;20.84;53.00;101189.50;8002319;28;20037;-72
2021/07/03 05:50:57;;;;;;;10.32;5.82;;;;;;;21.37;52.69;101172.34;8000215;28;20049;-72
2021/07/03 05:54:48;;;;;;;9.88;6.40;;;;;;;21.98;51.98;101183.44;8003742;28;20059;-72
2021/07/03 05:58:39;;;;;;;8.10;5.15;;;;;;;22.45;51.51;101183.56;8004444;28;20552;-72
2021/07/03 06:02:29;;;;;;;6.97;5.22;;;;;;;22.59;50.85;101187.38;8008967;28;20045;-72
2021/07/03 06:06:20;;;;;;;11.82;5.60;;;;;;;22.65;50.26;101175.16;8009734;28;20501;-72
2021/07/03 06:10:12;;;;;;;6.32;5.40;;;;;;;22.98;49.94;101180.19;8010333;28;20068;-72
2021/07/03 06:14:02;;;;;;;10.65;5.90;;;;;;;23.48;49.47;101178.09;8009582;28;20037;-72
2021/07/03 06:17:53;;;;;;;6.82;5.40;;;;;;;23.94;49.01;101173.56;8010046;28;20047;-72
2021/07/03 06:21:43;;;;;;;10.30;6.28;;;;;;;24.33;48.15;101168.84;8009559;28;20036;-72
2021/07/03 06:25:34;;;;;;;9.15;5.47;;;;;;;24.75;47.78;101166.34;8008639;28;20040;-72
2021/07/03 06:29:25;;;;;;;7.70;5.68;;;;;;;25.23;46.88;101156.00;8009167;28;20031;-72
2021/07/03 06:33:15;;;;;;;7.70;5.72;;;;;;;25.69;46.29;101159.97;8009436;28;20885;-72
2021/07/03 06:37:06;;;;;;;7.65;5.40;;;;;;;26.14;45.83;101160.59;8009044;28;20041;-72
2021/07/03 06:40:57;;;;;;;6.68;5.15;;;;;;;26.62;45.38;101160.69;8009193;28;20043;-73
2021/07/03 06:44:48;;;;;;;8.93;5.95;;;;;;;27.08;44.49;101164.44;8008867;28;20485;-72
2021/07/03 06:48:39;;;;;;;9.27;6.25;;;;;;;27.44;43.56;101154.13;8008950;28;20037;-72
2021/07/03 06:52:29;;;;;;;16.50;6.32;;;;;;;27.83;43.01;101161.47;8008469;28;20041;-72
2021/07/03 06:56:20;;;;;;;6.25;4.82;;;;;;;28.29;43.02;101155.22;8008051;28;20576;-72
2021/07/03 07:00:11;;;;;;;8.93;5.13;;;;;;;28.75;42.03;101144.28;8008494;28;20512;-72
2021/07/03 07:04:02;;;;;;;7.07;4.97;;;;;;;29.17;41.18;101150.94;8008005;28;20480;-72
2021/07/03 07:07:52;;;;;;;7.40;5.10;;;;;;;29.64;40.68;101153.13;7990490;28;20607;-72
2021/07/03 07:11:44;;;;;;;5.95;4.20;;;;;;;30.00;40.27;101152.41;8007347;28;20122;-72
2021/07/03 07:15:34;;;;;;;8.60;4.90;;;;;;;30.34;39.40;101144.81;8008110;28;20064;-72
2021/07/03 07:19:25;;;;;;;10.13;4.70;;;;;;;30.78;38.89;101144.50;8007739;28;20041;-73
2021/07/03 07:23:16;;;;;;;6.45;4.70;;;;;;;31.21;38.39;101130.81;8007453;28;20055;-74
2021/07/03 07:27:07;;;;;;;5.97;4.82;;;;;;;31.67;37.63;101143.69;8007357;28;20033;-73
2021/07/03 07:30:58;;;;;;;7.28;4.68;;;;;;;32.01;37.00;101147.50;8007352;28;20094;-73
2021/07/03 07:34:49;;;;;;;6.63;5.05;;;;;;;32.22;36.09;101144.19;8005813;28;20086;-71
2021/07/03 07:38:40;;;;;;;5.43;4.30;;;;;;;32.53;36.11;101137.53;8007650;28;20084;-72
2021/07/03 07:42:31;;;;;;;6.15;3.85;;;;;;;32.84;35.25;101134.38;8005642;28;20045;-72
2021/07/03 07:46:22;;;;;;;7.68;4.35;;;;;;;33.15;34.74;101130.34;8007206;28;20033;-72
2021/07/03 07:50:12;;;;;;;7.38;3.83;;;;;;;33.60;34.09;101130.31;8001722;28;20040;-72
2021/07/03 07:54:04;;;;;;;5.93;4.00;;;;;;;33.97;33.46;101122.47;8006508;28;20471;-71
2021/07/03 07:57:55;;;;;;;5.88;4.00;;;;;;;34.21;32.90;101128.53;8006731;28;20108;-71
2021/07/03 08:01:45;;;;;;;5.35;3.70;;;;;;;34.53;32.50;101125.97;8006721;28;20032;-72
2021/07/03 08:05:37;;;;;;;6.07;3.83;;;;;;;34.87;32.00;101116.59;8006070;28;20033;-72
2021/07/03 08:09:28;;;;;;;7.70;3.65;;;;;;;35.28;31.06;101120.56;8006312;28;20032;-72
2021/07/03 08:13:18;;;;;;;6.05;3.55;;;;;;;35.57;30.73;101107.41;8006288;28;20454;-72
2021/07/03 08:17:09;;;;;;;5.05;3.75;;;;;;;35.91;30.11;101108.75;8006341;28;20485;-71
2021/07/03 08:21:00;;;;;;;3.95;3.25;;;;;;;36.23;29.57;101105.94;8006013;28;20032;-72
2021/07/03 08:24:50;;;;;;;4.40;3.42;;;;;;;36.35;29.13;101117.47;8004733;28;20072;-71
2021/07/03 08:28:41;;;;;;;4.00;3.35;;;;;;;36.49;28.47;101106.91;8004910;28;20067;-71
2021/07/03 08:32:32;;;;;;;4.78;3.17;;;;;;;36.68;28.59;101096.28;8005914;28;20408;-72
2021/07/03 08:36:23;;;;;;;4.10;3.33;;;;;;;36.87;28.08;101098.25;8004985;28;20033;-72
2021/07/03 08:40:15;;;;;;;6.00;3.67;;;;;;;37.01;28.13;101089.50;8005587;28;20033;-72
2021/07/03 08:44:06;;;;;;;8.07;3.40;;;;;;;37.07;27.38;101091.19;8005144;28;20123;-72
2021/07/03 08:47:57;;;;;;;5.32;3.42;;;;;;;36.99;27.96;101087.06;8005328;28;20060;-71
2021/07/03 08:51:50;;;;;;;5.45;3.38;;;;;;;36.83;27.34;101094.41;8005205;28;20043;-72
2021/07/03 08:55:40;;;;;;;6.53;3.25;;;;;;;36.52;27.16;101087.19;8004604;28;20048;-72
2021/07/03 08:59:31;;;;;;;3.85;2.97;;;;;;;36.23;26.89;101094.19;8004836;28;20036;-72
2021/07/03 09:03:26;;;;;;;3.80;3.28;;;;;;;35.74;27.00;101088.97;8009556;28;20025;-71
2021/07/03 09:07:19;;;;;;;3.30;2.95;;;;;;;35.22;27.61;101079.78;8004683;28;20116;-72
2021/07/03 09:11:10;;;;;;;5.03;3.05;;;;;;;34.60;28.31;101081.03;8004909;28;20080;-72
2021/07/03 09:15:08;;;;;;;5.22;2.92;;;;;;;33.97;28.91;101061.72;8004299;28;20486;-72
2021/07/03 09:19:00;;;;;;;3.30;2.70;;;;;;;33.45;29.78;101072.91;8004291;28;20068;-71
2021/07/03 09:22:57;;;;;;;5.53;2.97;;;;;;;32.88;30.00;101077.59;8004202;28;20037;-72
2021/07/03 09:27:02;;;;;;;3.85;3.15;;;;;;;32.27;30.75;101078.25;8004123;28;20079;-72
2021/07/03 09:30:55;;;;;;;3.38;3.08;;;;;;;31.79;31.23;101071.19;8004242;28;20033;-71
2021/07/03 09:34:46;;;;;;;4.97;3.40;;;;;;;31.33;31.68;101087.41;8003015;28;20037;-72
2021/07/03 09:38:40;;;;;;;6.05;2.88;;;;;;;30.91;31.77;101083.84;8004276;28;20397;-72
2021/07/03 09:42:39;;;;;;;4.65;3.00;;;;;;;30.54;31.94;101080.34;8003520;28;20075;-71
2021/07/03 09:46:49;;;;;;;5.60;3.50;;;;;;;30.22;32.27;101081.59;8004141;28;20110;-74
2021/07/03 09:50:40;;;;;;;4.05;3.00;;;;;;;29.97;32.25;101082.47;8005553;28;20044;-73
2021/07/03 09:54:31;;;;;;;7.30;2.83;;;;;;;29.75;32.96;101079.34;8001811;28;20091;-74
2021/07/03 09:58:22;;;;;;;3.85;2.53;;;;;;;29.54;33.09;101071.59;7995420;28;20076;-73
2021/07/03 10:02:12;;;;;;;3.25;2.75;;;;;;;29.42;33.38;101072.53;8002639;28;20047;-73
2021/07/03 10:06:04;;;;;;;2.28;1.85;;;;;;;29.27;33.55;101062.03;8003529;28;20090;-74
2021/07/03 10:10:03;;;;;;;3.22;2.58;;;;;;;29.15;33.53;101070.03;8003973;28;20076;-73
2021/07/03 10:14:00;;;;;;;4.35;2.65;;;;;;;28.99;33.00;101059.72;8003764;28;20079;-74
2021/07/03 10:17:50;;;;;;;3.90;2.90;;;;;;;28.88;33.27;101059.59;8003247;28;20579;-73
2021/07/03 10:21:45;;;;;;;4.78;2.80;;;;;;;28.74;33.19;101062.38;8003582;28;20037;-74
2021/07/03 10:25:42;;;;;;;4.07;2.72;;;;;;;28.65;33.14;101054.72;8001675;28;20029;-73
2021/07/03 10:29:40;;;;;;;3.42;2.33;;;;;;;28.54;33.50;101049.97;7985420;28;20559;-72
2021/07/03 10:33:47;;;;;;;3.25;2.50;;;;;;;28.42;33.11;101040.88;7994518;28;20047;-72
2021/07/03 10:37:37;;;;;;;3.78;2.25;;;;;;;28.38;32.99;101032.34;7989881;28;20548;-72
2021/07/03 10:41:30;;;;;;;2.55;2.15;;;;;;;28.26;33.21;101024.09;8002313;28;20037;-72
2021/07/03 10:45:23;;;;;;;4.28;2.60;;;;;;;28.29;33.55;101028.25;8003177;28;20082;-72
2021/07/03 10:49:20;;;;;;;3.47;2.70;;;;;;;28.34;33.30;101031.13;8008335;28;20041;-72
2021/07/03 10:53:27;;;;;;;5.72;2.55;;;;;;;28.33;33.71;101024.91;8008615;28;20673;-72
2021/07/03 10:57:26;;;;;;;7.03;2.42;;;;;;;28.32;33.53;101019.72;8007146;28;20049;-72
2021/07/03 11:01:16;;;;;;;3.60;2.58;;;;;;;28.37;33.77;101023.44;8008367;28;20032;-72
2021/07/03 11:05:14;;;;;;;3.10;2.22;;;;;;;28.38;33.85;101024.25;8008356;28;20029;-72
2021/07/03 11:09:16;;;;;;;3.95;2.63;;;;;;;28.39;33.41;101015.09;8008887;28;20099;-73
2021/07/03 11:13:18;;;;;;;3.78;2.58;;;;;;;28.35;32.81;101011.19;8007769;28;20041;-72
2021/07/03 11:17:08;;;;;;;3.50;2.40;;;;;;;28.26;32.57;100998.94;7989990;28;20029;-73
2021/07/03 11:21:04;;;;;;;3.10;2.38;;;;;;;28.19;33.10;100992.75;8007818;28;20047;-72
2021/07/03 11:24:57;;;;;;;6.18;2.67;;;;;;;28.13;32.76;100993.59;8007640;28;20108;-72
2021/07/03 11:28:58;;;;;;;4.47;2.50;;;;;;;28.04;32.67;100997.56;8007813;28;20077;-72
2021/07/03 11:32:54;;;;;;;6.65;2.88;;;;;;;27.94;33.16;100988.03;8007570;28;20037;-72
2021/07/03 11:36:54;;;;;;;3.80;2.15;;;;;;;27.84;32.53;100984.94;8006124;28;20082;-72
2021/07/03 11:40:45;;;;;;;3.50;2.10;;;;;;;27.77;33.34;100986.00;8005987;28;20036;-72
2021/07/03 11:44:36;;;;;;;5.45;2.33;;;;;;;27.73;33.18;100977.50;8005712;28;20029;-72
2021/07/03 11:48:27;;;;;;;3.00;1.98;;;;;;;27.68;32.89;100969.22;8007249;28;20032;-72
2021/07/03 11:52:17;;;;;;;2.90;2.00;;;;;;;27.76;33.13;100970.84;8006844;28;20445;-72
2021/07/03 11:56:08;;;;;;;2.38;2.08;;;;;;;27.88;33.30;100977.28;8006921;28;20033;-72
2021/07/03 11:59:58;;;;;;;2.83;1.92;;;;;;;27.95;33.04;100975.38;8006416;28;20039;-73
2021/07/03 12:03:49;;;;;;;4.80;2.58;;;;;;;27.96;33.40;100968.94;8003125;28;20040;-72
2021/07/03 12:07:41;;;;;;;3.30;2.05;;;;;;;28.06;33.03;100974.72;8005245;28;20048;-73
2021/07/03 12:11:31;;;;;;;2.53;1.90;;;;;;;28.10;33.20;100961.59;8006427;28;20516;-72
2021/07/03 12:15:26;;;;;;;2.67;2.10;;;;;;;28.11;33.00;100966.78;8006479;28;20029;-72
2021/07/03 12:19:19;;;;;;;3.38;1.85;;;;;;;28.10;32.86;100953.50;8006118;28;20037;-72
2021/07/03 12:23:10;;;;;;;3.17;1.85;;;;;;;28.14;32.75;100952.88;8006129;28;20058;-72
2021/07/03 12:27:00;;;;;;;2.38;1.85;;;;;;;28.11;32.99;100939.78;8005990;28;20029;-72
2021/07/03 12:30:51;;;;;;;3.13;1.95;;;;;;;28.12;33.16;100943.31;8004365;28;20039;-72
2021/07/03 12:34:42;;;;;;;2.83;2.03;;;;;;;28.17;32.71;100944.34;8002572;28;20021;-72
2021/07/03 12:38:32;;;;;;;2.35;1.92;;;;;;;28.21;32.61;100932.06;8005591;28;20436;-73
2021/07/03 12:42:25;;;;;;;4.35;1.75;;;;;;;28.25;33.08;100930.63;8002453;28;20041;-72
2021/07/03 12:46:16;;;;;;;3.80;2.40;;;;;;;28.24;32.96;100933.53;8003823;28;20120;-73
2021/07/03 12:50:08;;;;;;;3.72;2.40;;;;;;;28.21;32.57;100934.78;8005101;28;20045;-73
2021/07/03 12:54:00;;;;;;;3.35;1.80;;;;;;;28.17;32.90;100927.34;8005188;28;20032;-72
2021/07/03 12:57:51;;;;;;;2.78;2.05;;;;;;;28.13;32.56;100926.91;8005177;28;20061;-73
2021/07/03 13:01:43;;;;;;;1.90;1.70;;;;;;;28.12;32.76;100938.75;8005041;28;20052;-72
2021/07/03 13:05:33;;;;;;;2.00;1.80;;;;;;;28.07;33.02;100927.75;8004089;28;20371;-73
2021/07/03 13:09:24;;;;;;;2.08;1.88;;;;;;;28.09;32.94;100938.38;8003081;28;20697;-72
2021/07/03 13:13:14;;;;;;;2.75;1.52;;;;;;;28.05;33.02;100924.44;8004508;28;20033;-72
2021/07/03 13:17:05;;;;;;;3.90;2.15;;;;;;;28.01;32.89;100928.63;8004523;28;20044;-72
2021/07/03 13:20:55;;;;;;;2.15;1.75;;;;;;;27.99;33.07;100919.91;8004159;28;20037;-73
2021/07/03 13:24:46;;;;;;;5.32;2.70;;;;;;;27.91;33.12;100936.34;8002926;28;20066;-72
2021/07/03 13:28:39;;;;;;;2.45;1.85;;;;;;;27.82;33.15;100930.38;8004070;28;20059;-72
2021/07/03 13:32:30;;;;;;;3.10;2.45;;;;;;;27.80;33.27;100927.03;8004261;28;20132;-72
2021/07/03 13:36:21;;;;;;;2.70;2.17;;;;;;;27.78;33.08;100929.13;8004313;28;20041;-72
2021/07/03 13:40:12;;;;;;;3.03;2.00;;;;;;;27.77;33.28;100921.25;8004134;28;20086;-72
2021/07/03 13:44:03;;;;;;;2.50;1.85;;;;;;;27.71;33.02;100912.16;8004105;28;20090;-72
2021/07/03 13:47:54;;;;;;;3.20;2.05;;;;;;;27.78;33.61;100926.44;8002837;28;20033;-73
2021/07/03 13:51:44;;;;;;;3.30;2.40;;;;;;;27.76;33.28;100925.81;8003180;28;20033;-73
2021/07/03 13:55:36;;;;;;;4.15;2.20;;;;;;;27.73;33.56;100920.00;8003697;28;20047;-73
2021/07/03 13:59:27;;;;;;;3.30;2.20;;;;;;;27.71;33.35;100922.09;8001785;28;20033;-72
2021/07/03 14:03:18;;;;;;;2.75;2.20;;;;;;;27.67;33.38;100920.88;8003083;28;20036;-73
2021/07/03 14:07:09;;;;;;;2.75;2.17;;;;;;;27.66;33.41;100916.50;8003549;28;20063;-72
2021/07/03 14:10:59;;;;;;;2.67;1.98;;;;;;;27.64;33.46;100916.72;8004179;28;20789;-73
2021/07/03 14:14:50;;;;;;;2.55;2.08;;;;;;;27.60;33.99;100920.00;8003380;28;20033;-73
2021/07/03 14:18:40;;;;;;;3.70;2.10;;;;;;;27.55;33.89;100917.16;8004004;28;20067;-72
2021/07/03 14:22:31;;;;;;;2.40;2.13;;;;;;;27.46;33.59;100920.06;8006706;28;20657;-72
2021/07/03 14:26:26;;;;;;;3.35;2.45;;;;;;;27.37;34.08;100915.94;8009143;28;20043;-72
2021/07/03 14:30:17;;;;;;;3.20;2.45;;;;;;;27.30;34.30;100917.78;8009307;28;20036;-72
2021/07/03 14:34:08;;;;;;;4.47;2.28;;;;;;;27.15;34.41;100919.06;8005422;28;20885;-72
2021/07/03 14:37:59;;;;;;;4.30;1.98;;;;;;;27.03;33.95;100914.28;8006697;28;20563;-72
2021/07/03 14:41:51;;;;;;;3.20;1.77;;;;;;;26.92;34.13;100919.47;8009104;28;20122;-72
2021/07/03 14:45:42;;;;;;;2.45;2.13;;;;;;;26.84;34.42;100922.38;8008341;28;20052;-73
2021/07/03 14:49:34;;;;;;;3.92;2.33;;;;;;;26.70;34.60;100918.00;8007274;28;20036;-72
2021/07/03 14:53:25;;;;;;;3.05;2.10;;;;;;;26.61;35.00;100928.16;8005649;28;20163;-72
2021/07/03 14:57:15;;;;;;;3.65;2.45;;;;;;;26.47;34.81;100935.34;8007252;28;20036;-72
2021/07/03 15:01:06;;;;;;;3.47;2.20;;;;;;;26.36;35.06;100935.09;8008342;28;20447;-72
2021/07/03 15:04:56;;;;;;;3.17;2.20;;;;;;;26.28;35.19;100935.28;8008079;28;20167;-72
2021/07/03 15:08:47;;;;;;;4.32;2.17;;;;;;;26.21;35.31;100929.91;8007582;28;20035;-72
2021/07/03 15:12:38;;;;;;;3.28;2.08;;;;;;;26.14;35.12;100937.13;8008144;28;20452;-72
2021/07/03 15:16:29;;;;;;;3.85;2.17;;;;;;;25.99;35.19;100920.25;8008398;28;20026;-72
2021/07/03 15:20:20;;;;;;;2.03;1.67;;;;;;;25.98;35.49;100924.81;8009142;28;20419;-72
2021/07/03 15:24:13;;;;;;;3.30;1.90;;;;;;;25.91;35.68;100923.13;8007811;28;20503;-72
2021/07/03 15:28:04;;;;;;;2.50;2.00;;;;;;;25.86;35.54;100917.50;8007685;28;20525;-72
2021/07/03 15:31:56;;;;;;;3.22;1.92;;;;;;;25.77;35.55;100916.03;8007465;28;20037;-72
2021/07/03 15:35:47;;;;;;;3.05;1.85;;;;;;;25.73;35.64;100912.88;8007003;28;20055;-72
2021/07/03 15:39:38;;;;;;;2.42;1.80;;;;;;;25.67;36.05;100903.78;8007571;28;20486;-72
2021/07/03 15:43:28;;;;;;;4.22;2.25;;;;;;;25.57;36.06;100900.59;8007523;28;20037;-72
2021/07/03 15:47:19;;;;;;;2.58;2.08;;;;;;;25.57;36.27;100906.00;8007494;28;20029;-72
2021/07/03 15:51:09;;;;;;;2.10;1.90;;;;;;;25.52;36.52;100904.94;8006512;28;20037;-72
2021/07/03 15:55:00;;;;;;;3.33;2.17;;;;;;;25.44;36.54;100900.53;8005636;28;20037;-72
2021/07/03 15:58:51;;;;;;;2.60;1.80;;;;;;;25.38;36.53;100905.84;8002631;28;20032;-72
2021/07/03 16:02:43;;;;;;;8.70;2.35;;;;;;;25.36;36.58;100905.19;8006738;28;20060;-72
2021/07/03 16:06:33;;;;;;;2.47;1.92;;;;;;;25.25;36.63;100899.34;8006376;28;20037;-72
2021/07/03 16:10:24;;;;;;;4.05;1.85;;;;;;;25.23;36.78;100912.16;8006869;28;20029;-72
2021/07/03 16:14:15;;;;;;;3.03;2.00;;;;;;;25.18;37.22;100917.31;8005431;28;20033;-72
2021/07/03 16:18:06;;;;;;;2.97;1.90;;;;;;;25.08;37.86;100910.59;8006290;28;20029;-72
2021/07/03 16:21:56;;;;;;;2.65;2.05;;;;;;;25.04;37.82;100909.31;8005142;28;20025;-73
2021/07/03 16:25:49;;;;;;;2.85;2.10;;;;;;;24.96;38.86;100901.41;8005688;28;20037;-72
2021/07/03 16:29:40;;;;;;;3.25;2.75;;;;;;;24.86;39.19;100896.31;8004531;28;20072;-72
2021/07/03 16:33:31;;;;;;;2.75;2.03;;;;;;;24.78;39.51;100894.63;8005733;28;20029;-72
2021/07/03 16:37:21;;;;;;;3.20;2.13;;;;;;;24.74;39.29;100903.25;8001857;28;20397;-72
2021/07/03 16:41:16;;;;;;;3.92;2.63;;;;;;;24.65;39.18;100894.50;8004071;28;20482;-73
2021/07/03 16:45:07;;;;;;;3.03;2.40;;;;;;;24.53;39.25;100879.91;7996610;28;20477;-72
2021/07/03 16:48:57;;;;;;;2.80;2.40;;;;;;;24.53;39.05;100887.16;8000809;28;20025;-72
2021/07/03 16:52:48;;;;;;;3.13;2.42;;;;;;;24.43;39.36;100878.59;8005211;28;20396;-72
2021/07/03 16:56:39;;;;;;;3.38;2.53;;;;;;;24.34;38.87;100865.31;8004804;28;20032;-72
2021/07/03 17:00:29;;;;;;;2.67;2.30;;;;;;;24.30;39.31;100863.19;8005209;28;20499;-72
2021/07/03 17:04:20;;;;;;;3.13;2.35;;;;;;;24.25;39.16;100865.56;8004764;28;20033;-71
2021/07/03 17:08:10;;;;;;;2.50;2.08;;;;;;;24.15;39.64;100863.22;8003978;28;20029;-72
2021/07/03 17:12:01;;;;;;;3.45;2.08;;;;;;;24.11;39.69;100864.59;8003418;28;20477;-72
2021/07/03 17:15:54;;;;;;;2.15;1.77;;;;;;;24.08;39.96;100859.63;8001813;28;20497;-72
2021/07/03 17:19:44;;;;;;;15.60;2.60;;;;;;;24.04;39.88;100846.75;8004750;28;20098;-72
2021/07/03 17:23:35;;;;;;;3.15;2.35;;;;;;;23.95;40.05;100854.09;8002524;28;20041;-72
2021/07/03 17:27:26;;;;;;;2.88;2.58;;;;;;;23.88;39.89;100854.03;8003675;28;20029;-72
2021/07/03 17:31:18;;;;;;;3.58;1.85;;;;;;;23.79;40.23;100855.16;8002786;28;20037;-71
2021/07/03 17:35:10;;;;;;;2.83;2.30;;;;;;;23.76;40.56;100852.03;8004270;28;20025;-72
2021/07/03 17:39:01;;;;;;;3.28;2.72;;;;;;;23.71;40.81;100851.75;8004867;28;20544;-71
2021/07/03 17:42:51;;;;;;;4.90;2.42;;;;;;;23.65;40.78;100837.22;8003896;28;20032;-72
2021/07/03 17:46:42;;;;;;;3.05;2.28;;;;;;;23.61;41.03;100837.78;8003990;28;20717;-72
2021/07/03 17:50:33;;;;;;;2.83;2.20;;;;;;;23.55;41.16;100841.19;8004196;28;20094;-72
2021/07/03 17:54:23;;;;;;;3.20;2.30;;;;;;;23.50;41.14;100836.41;8004189;28;20032;-72
2021/07/03 17:58:14;;;;;;;7.78;3.10;;;;;;;23.45;41.33;100841.47;8003546;28;20769;-72